Terminal Aerodrome Forecast
Issued by NWS Boston, MA

Home | Current Version | Previous Version | Text Only | Print | Product List | Glossary On
Versions: 1 2 3 4 5 6 7 8 9 10 11 12 13 14 15 16 17 18 19 20 21 22 23 24 25 26 27 28
000
FTUS41 KBOX 210842 AAA
TAFORH
TAF AMD
KORH 210842Z 2109/2206 19006KT 2SM SHRA BR BKN005 OVC015
     FM211100 19007KT 4SM -SHRA BR OVC008
     FM211400 18007KT 5SM -SHRA BR OVC015
     FM211500 18007KT P6SM BKN030
     FM220300 23005KT 3SM BR BKN100=

USA.gov is the U.S. government's official web portal to all federal, state and local government web resources and services.